Decoded Metar for KSTF ( in ) (IATA:) | Meteo·Mobile Aviation Weather
aviador You're here:

KSTF Decoded Metar

in
Report Time2018-10-17 20:35:00
UTC Time2018-10-17 20:47:37
Flight Rules vfr VFR
Wind020° at 06 kt
W.Decomp.*RWY 36: 5.6 kt HW 2.1 kt RCW
W.Rank020° ranks 16
Current wind is above 020° avg. (5.8)
Visibility9999 m
Phenomena:N/A
Clouds:Overcast 075 Hf
Expected CloudBase > 2,800 ft AGL from Temp-Dew spread
Ceiling7,500 ft
Temp17°C
Dew Point10°C (64% RH)
AAT14.9°C
QNH1026 hPa
Raw Report
KSTF 172035Z AUTO 02006KT 10SM OVC075 17/10 A3030 RMK AO2=

Extra information for KSTF:More info

Social comments